Time;durP1;ratioP1;P1;durP2;ratioP2;P2;SDS_P1;SDS_P2;PMS_P1;PMS_P2;Temp;Humidity;BMP_temperature;BMP_pressure;BME280_temperature;BME280_humidity;BME280_pressure;Samples;Min_cycle;Max_cycle;Signal;HPM_P1;HPM_P2
2022/07/31 00:00:45;;;;;;;3.63;2.70;;;18.20;98.00;;;;;;5072303;28;20496;-68
2022/07/31 00:03:13;;;;;;;4.80;2.97;;;18.10;98.00;;;;;;5072647;28;20461;-68
2022/07/31 00:05:40;;;;;;;3.30;2.43;;;18.10;98.00;;;;;;5072498;28;20469;-68
2022/07/31 00:08:08;;;;;;;8.43;2.93;;;18.00;98.00;;;;;;5054756;28;20445;-68
2022/07/31 00:10:36;;;;;;;4.77;2.90;;;17.90;98.00;;;;;;5054284;28;20472;-68
2022/07/31 00:13:03;;;;;;;3.73;2.50;;;17.90;98.00;;;;;;5071893;28;20457;-68
2022/07/31 00:15:30;;;;;;;4.47;2.83;;;17.80;98.00;;;;;;5072018;28;20489;-68
2022/07/31 00:17:59;;;;;;;5.60;2.97;;;17.90;98.00;;;;;;5054155;28;20465;-67
2022/07/31 00:20:26;;;;;;;3.53;2.63;;;17.90;98.00;;;;;;5072005;28;20457;-68
2022/07/31 00:22:54;;;;;;;6.17;3.30;;;17.90;98.00;;;;;;5072036;28;20822;-68
2022/07/31 00:25:24;;;;;;;5.33;2.90;;;17.90;98.00;;;;;;5072095;28;20818;-68
2022/07/31 00:27:51;;;;;;;4.60;3.07;;;17.90;98.00;;;;;;5071746;28;20461;-68
2022/07/31 00:30:18;;;;;;;4.47;3.20;;;18.00;98.00;;;;;;5071807;28;20457;-68
2022/07/31 00:32:45;;;;;;;5.53;3.30;;;17.80;98.00;;;;;;5071811;28;20461;-68
2022/07/31 00:35:14;;;;;;;3.60;2.70;;;17.70;98.00;;;;;;5071696;28;20575;-68
2022/07/31 00:37:43;;;;;;;3.80;2.63;;;17.80;98.00;;;;;;5071589;28;20465;-69
2022/07/31 00:40:12;;;;;;;4.20;3.00;;;17.90;98.00;;;;;;5071449;28;20483;-68
2022/07/31 00:42:40;;;;;;;4.27;3.00;;;18.00;98.00;;;;;;5071562;28;20457;-68
2022/07/31 00:45:08;;;;;;;4.93;3.10;;;18.20;98.00;;;;;;5071564;28;20460;-68
2022/07/31 00:47:36;;;;;;;3.83;2.67;;;18.40;98.00;;;;;;5071405;28;20453;-68
2022/07/31 00:50:05;;;;;;;5.23;3.23;;;18.60;98.00;;;;;;5053747;28;20492;-68
2022/07/31 00:52:34;;;;;;;6.80;3.03;;;18.60;98.00;;;;;;5053673;28;20433;-68
2022/07/31 00:55:02;;;;;;;8.60;3.77;;;18.70;98.00;;;;;;5071474;28;20491;-68
2022/07/31 00:57:29;;;;;;;4.00;2.90;;;18.50;98.00;;;;;;5071489;28;20465;-68
2022/07/31 00:59:56;;;;;;;5.10;2.80;;;18.30;98.00;;;;;;5053721;28;20943;-69
2022/07/31 01:02:23;;;;;;;4.13;2.77;;;18.20;98.00;;;;;;5071400;28;20848;-68
2022/07/31 01:04:52;;;;;;;4.80;3.00;;;18.00;98.00;;;;;;5071351;28;20480;-68
2022/07/31 01:07:19;;;;;;;4.83;3.20;;;18.00;98.00;;;;;;5071415;28;20477;-68
2022/07/31 01:09:49;;;;;;;5.70;3.40;;;18.30;98.00;;;;;;5071266;28;20830;-69
2022/07/31 01:12:22;;;;;;;5.97;3.27;;;18.40;98.00;;;;;;5071312;28;20452;-68
2022/07/31 01:14:54;;;;;;;5.70;3.50;;;18.60;98.00;;;;;;5053867;28;20956;-69
2022/07/31 01:17:23;;;;;;;3.97;2.77;;;18.60;98.00;;;;;;5071180;28;20459;-68
2022/07/31 01:19:51;;;;;;;5.00;3.10;;;18.60;98.00;;;;;;5071312;28;20499;-67
2022/07/31 01:22:42;;;;;;;7.20;3.23;;;18.60;98.00;;;;;;5070652;28;20457;-68
2022/07/31 01:25:17;;;;;;;4.27;2.70;;;18.50;98.00;;;;;;5071053;28;20830;-68
2022/07/31 01:28:00;;;;;;;4.60;2.77;;;18.50;98.00;;;;;;5070953;28;20456;-68
2022/07/31 01:30:34;;;;;;;6.37;2.83;;;18.20;98.00;;;;;;5071125;28;20997;-68
2022/07/31 01:33:10;;;;;;;5.40;3.20;;;18.10;98.00;;;;;;5070934;28;20457;-68
2022/07/31 01:35:42;;;;;;;4.50;2.93;;;18.20;98.00;;;;;;5053905;28;21143;-68
2022/07/31 01:38:16;;;;;;;5.07;2.93;;;18.20;98.00;;;;;;5070960;28;20468;-68
2022/07/31 01:40:47;;;;;;;3.23;2.80;;;18.20;98.00;;;;;;5070775;28;20457;-68
2022/07/31 01:43:19;;;;;;;13.33;3.27;;;18.30;98.00;;;;;;5070843;28;20453;-68
2022/07/31 01:45:52;;;;;;;4.50;2.93;;;18.40;98.00;;;;;;5070412;28;20456;-68
2022/07/31 01:48:19;;;;;;;4.43;2.73;;;18.20;98.00;;;;;;5070798;28;20453;-69
2022/07/31 01:50:51;;;;;;;5.03;2.77;;;17.90;98.00;;;;;;5070955;28;20460;-68
2022/07/31 01:53:22;;;;;;;3.50;2.70;;;17.70;98.00;;;;;;5053243;28;20449;-67
2022/07/31 01:55:52;;;;;;;3.87;2.60;;;17.50;98.00;;;;;;5070734;28;20491;-68
2022/07/31 01:58:21;;;;;;;4.67;2.80;;;17.50;98.00;;;;;;5070802;28;20802;-68
2022/07/31 02:00:57;;;;;;;5.27;3.30;;;17.60;98.00;;;;;;5070792;28;20990;-68
2022/07/31 02:03:26;;;;;;;4.33;3.00;;;17.60;98.00;;;;;;5053891;28;20476;-67
2022/07/31 02:05:54;;;;;;;4.73;2.97;;;17.40;98.00;;;;;;5070711;28;20464;-68
2022/07/31 02:08:22;;;;;;;4.50;3.13;;;17.20;98.00;;;;;;5070949;28;20479;-68
2022/07/31 02:10:51;;;;;;;3.80;2.60;;;17.10;98.00;;;;;;5053014;28;20473;-68
2022/07/31 02:13:19;;;;;;;4.20;2.80;;;17.10;98.00;;;;;;5070797;28;20457;-68
2022/07/31 02:15:48;;;;;;;6.47;3.33;;;17.00;98.00;;;;;;5070473;28;20490;-68
2022/07/31 02:18:18;;;;;;;4.80;2.90;;;17.00;98.00;;;;;;5070485;28;20456;-67
2022/07/31 02:20:50;;;;;;;4.70;2.93;;;17.00;98.00;;;;;;5070349;28;20463;-69
2022/07/31 02:23:18;;;;;;;4.50;2.87;;;17.00;98.00;;;;;;5070451;28;20488;-68
2022/07/31 02:25:46;;;;;;;4.10;2.63;;;16.90;98.00;;;;;;5070308;28;20456;-68
2022/07/31 02:28:19;;;;;;;4.40;3.13;;;16.80;98.00;;;;;;5070506;28;20951;-68
2022/07/31 02:30:48;;;;;;;3.93;2.93;;;16.70;98.00;;;;;;5070412;28;20456;-69
2022/07/31 02:33:19;;;;;;;6.23;3.30;;;16.70;98.00;;;;;;5052961;28;20523;-68
2022/07/31 02:35:49;;;;;;;5.47;2.97;;;16.70;98.00;;;;;;5073461;28;20881;-68
2022/07/31 02:38:20;;;;;;;4.53;3.00;;;16.60;98.00;;;;;;5073863;28;20461;-68
2022/07/31 02:40:49;;;;;;;4.70;2.73;;;16.50;98.00;;;;;;5056156;28;20499;-68
2022/07/31 02:43:17;;;;;;;4.57;2.87;;;16.60;98.00;;;;;;5073852;28;20456;-68
2022/07/31 02:45:46;;;;;;;4.53;2.97;;;16.70;98.00;;;;;;5073815;28;20943;-68
2022/07/31 02:48:13;;;;;;;4.27;2.53;;;16.70;98.00;;;;;;5073714;28;20457;-68
2022/07/31 02:50:43;;;;;;;5.43;3.13;;;16.90;98.00;;;;;;5073639;28;20457;-68
2022/07/31 02:53:11;;;;;;;4.73;3.07;;;16.90;98.00;;;;;;5073699;28;20449;-68
2022/07/31 02:55:39;;;;;;;3.03;2.33;;;16.80;98.00;;;;;;5055731;28;20480;-68
2022/07/31 02:58:07;;;;;;;3.90;3.00;;;16.80;98.00;;;;;;5073736;28;20465;-68
2022/07/31 03:00:34;;;;;;;4.17;2.67;;;16.90;98.00;;;;;;5073699;28;20449;-68
2022/07/31 03:03:02;;;;;;;4.43;3.20;;;16.90;98.00;;;;;;5073999;28;20457;-68
2022/07/31 03:05:30;;;;;;;4.70;3.03;;;16.90;98.00;;;;;;5039316;28;20514;-68
2022/07/31 03:08:08;;;;;;;4.57;2.90;;;16.90;98.00;;;;;;5074489;28;20453;-68
2022/07/31 03:10:46;;;;;;;4.07;2.77;;;16.60;98.00;;;;;;5074016;28;20461;-68
2022/07/31 03:13:14;;;;;;;3.90;2.80;;;16.50;98.00;;;;;;5073570;28;20519;-67
2022/07/31 03:15:43;;;;;;;3.70;2.93;;;16.50;98.00;;;;;;5073173;28;20485;-67
2022/07/31 03:18:13;;;;;;;3.87;2.80;;;16.50;98.00;;;;;;5073289;28;20471;-69
2022/07/31 03:20:42;;;;;;;3.63;2.43;;;16.50;98.00;;;;;;5073208;28;20840;-69
2022/07/31 03:23:12;;;;;;;4.60;2.97;;;16.50;98.00;;;;;;5073093;28;20457;-68
2022/07/31 03:25:41;;;;;;;4.10;2.60;;;16.50;98.00;;;;;;5073130;28;20453;-68
2022/07/31 03:28:09;;;;;;;3.77;2.80;;;16.40;98.00;;;;;;5073066;28;20456;-68
2022/07/31 03:30:36;;;;;;;3.07;2.30;;;16.40;98.00;;;;;;5072919;28;20506;-68
2022/07/31 03:33:04;;;;;;;3.60;2.80;;;16.40;98.00;;;;;;5073194;28;20457;-68
2022/07/31 03:35:32;;;;;;;3.70;2.47;;;16.30;98.00;;;;;;5072814;28;20554;-68
2022/07/31 03:38:00;;;;;;;3.70;2.80;;;16.30;98.00;;;;;;5073023;28;21037;-68
2022/07/31 03:40:28;;;;;;;4.70;3.07;;;16.40;98.00;;;;;;5072768;28;20449;-68
2022/07/31 03:42:57;;;;;;;3.53;2.50;;;16.40;98.00;;;;;;5072757;28;20452;-68
2022/07/31 03:45:25;;;;;;;5.10;3.10;;;16.40;98.00;;;;;;5054591;28;20499;-68
2022/07/31 03:47:54;;;;;;;4.17;2.57;;;16.50;98.00;;;;;;5072356;28;20456;-69
2022/07/31 03:50:21;;;;;;;4.57;2.80;;;16.40;98.00;;;;;;5072286;28;20453;-68
2022/07/31 03:52:50;;;;;;;6.30;2.90;;;16.50;98.00;;;;;;5072470;28;20469;-69
2022/07/31 03:55:17;;;;;;;3.10;2.30;;;16.50;98.00;;;;;;5072371;28;20963;-68
2022/07/31 03:57:46;;;;;;;2.53;2.27;;;16.40;98.00;;;;;;5072339;28;20460;-68
2022/07/31 04:00:16;;;;;;;2.63;2.17;;;16.30;98.00;;;;;;5072404;28;20457;-68
2022/07/31 04:02:43;;;;;;;3.37;2.47;;;16.30;98.00;;;;;;5072374;28;20803;-69
2022/07/31 04:05:11;;;;;;;3.70;2.67;;;16.30;98.00;;;;;;5054587;28;20464;-69
2022/07/31 04:07:38;;;;;;;4.60;2.70;;;16.20;98.00;;;;;;5072215;28;20962;-69
2022/07/31 04:10:07;;;;;;;2.90;2.20;;;16.10;98.00;;;;;;5072521;28;20819;-67
2022/07/31 04:12:34;;;;;;;3.73;3.03;;;16.10;98.00;;;;;;5072074;28;20959;-68
2022/07/31 04:15:03;;;;;;;3.37;2.67;;;16.00;98.00;;;;;;5072060;28;20445;-68
2022/07/31 04:17:30;;;;;;;4.00;2.40;;;16.00;98.00;;;;;;5072035;28;20480;-68
2022/07/31 04:19:57;;;;;;;3.87;2.30;;;16.00;98.00;;;;;;5054295;28;20459;-68
2022/07/31 04:22:25;;;;;;;3.93;2.70;;;16.00;98.00;;;;;;5054276;28;20448;-68
2022/07/31 04:24:52;;;;;;;5.60;2.80;;;16.00;98.00;;;;;;5072012;28;20468;-67
2022/07/31 04:27:19;;;;;;;3.20;2.50;;;16.00;98.00;;;;;;5071855;28;20452;-68
2022/07/31 04:29:48;;;;;;;2.50;2.30;;;16.00;98.00;;;;;;5071704;28;20452;-68
2022/07/31 04:32:16;;;;;;;3.00;2.23;;;16.20;98.00;;;;;;5054205;28;20535;-68
2022/07/31 04:34:43;;;;;;;3.70;2.50;;;16.20;98.00;;;;;;5071745;28;20465;-68
2022/07/31 04:37:10;;;;;;;3.50;2.43;;;16.40;98.00;;;;;;5071449;28;20480;-68
2022/07/31 04:39:37;;;;;;;5.10;2.83;;;16.50;98.00;;;;;;5071517;28;20453;-68
2022/07/31 04:42:06;;;;;;;4.00;2.83;;;16.50;98.00;;;;;;5071683;28;20805;-68
2022/07/31 04:44:33;;;;;;;3.20;2.10;;;16.70;98.00;;;;;;5071793;28;20457;-67
2022/07/31 04:47:00;;;;;;;4.83;2.70;;;16.80;98.00;;;;;;5071797;28;20880;-68
2022/07/31 04:49:31;;;;;;;4.50;2.33;;;16.80;98.00;;;;;;5071417;28;20515;-68
2022/07/31 04:51:58;;;;;;;4.10;3.00;;;16.90;98.00;;;;;;5071452;28;20453;-68
2022/07/31 04:54:25;;;;;;;2.83;2.20;;;17.00;98.00;;;;;;5071256;28;20457;-68
2022/07/31 04:56:53;;;;;;;2.83;2.17;;;17.00;98.00;;;;;;5071238;28;20485;-68
2022/07/31 04:59:23;;;;;;;4.27;2.53;;;16.90;98.00;;;;;;5071414;28;20453;-67
2022/07/31 05:01:51;;;;;;;4.17;3.00;;;17.00;98.00;;;;;;5071316;28;20460;-68
2022/07/31 05:04:19;;;;;;;3.37;2.50;;;17.10;98.00;;;;;;5053592;28;20867;-68
2022/07/31 05:06:51;;;;;;;5.10;2.80;;;17.00;98.00;;;;;;5071024;28;20468;-68
2022/07/31 05:09:21;;;;;;;3.50;2.57;;;16.80;98.00;;;;;;5071615;28;20820;-68
2022/07/31 05:11:49;;;;;;;5.67;3.50;;;16.70;98.00;;;;;;5071413;28;20456;-68
2022/07/31 05:14:18;;;;;;;3.47;2.63;;;16.60;98.00;;;;;;5071518;28;20464;-68
2022/07/31 05:16:46;;;;;;;4.10;3.13;;;16.70;98.00;;;;;;5053144;28;21009;-67
2022/07/31 05:19:13;;;;;;;3.80;2.50;;;16.60;98.00;;;;;;5071129;28;20487;-68
2022/07/31 05:21:41;;;;;;;4.40;2.77;;;16.60;98.00;;;;;;5070993;28;20461;-68
2022/07/31 05:24:12;;;;;;;5.33;3.30;;;16.60;98.00;;;;;;5053401;28;20457;-67
2022/07/31 05:26:39;;;;;;;6.27;3.17;;;16.60;98.00;;;;;;5070936;28;20453;-68
2022/07/31 05:29:06;;;;;;;3.93;2.60;;;16.90;98.00;;;;;;5053202;28;20449;-68
2022/07/31 05:31:33;;;;;;;5.10;2.50;;;17.20;98.00;;;;;;5070967;28;20456;-68
2022/07/31 05:34:00;;;;;;;7.43;3.30;;;17.40;98.00;;;;;;5070514;28;20468;-68
2022/07/31 05:36:28;;;;;;;4.03;3.17;;;17.70;98.00;;;;;;5070874;28;20495;-68
2022/07/31 05:38:55;;;;;;;3.30;2.60;;;17.80;98.00;;;;;;5053146;28;20463;-68
2022/07/31 05:41:24;;;;;;;4.60;3.27;;;17.80;98.00;;;;;;5070863;28;20453;-67
2022/07/31 05:43:52;;;;;;;4.20;2.93;;;17.80;98.00;;;;;;5070754;28;20943;-69
2022/07/31 05:46:20;;;;;;;4.67;3.20;;;18.00;98.00;;;;;;5070780;28;20464;-69
2022/07/31 05:48:47;;;;;;;5.37;2.93;;;18.10;98.00;;;;;;5070588;28;20480;-68
2022/07/31 05:51:14;;;;;;;5.70;3.70;;;18.20;98.00;;;;;;5070728;28;20464;-69
2022/07/31 05:53:42;;;;;;;3.97;2.83;;;18.10;98.00;;;;;;5070777;28;20472;-68
2022/07/31 05:56:09;;;;;;;3.33;2.63;;;18.20;98.00;;;;;;5070861;28;20528;-68
2022/07/31 05:58:38;;;;;;;5.40;3.40;;;18.40;98.00;;;;;;5052860;28;20454;-68
2022/07/31 06:01:05;;;;;;;4.70;2.80;;;18.60;98.00;;;;;;5070753;28;20815;-68
2022/07/31 06:03:35;;;;;;;4.60;2.83;;;18.80;98.00;;;;;;5071025;28;20586;-68
2022/07/31 06:06:03;;;;;;;5.33;3.10;;;19.00;98.00;;;;;;5069716;28;20461;-69
2022/07/31 06:08:32;;;;;;;4.30;2.80;;;19.00;98.00;;;;;;5070731;28;20453;-68
2022/07/31 06:10:59;;;;;;;5.50;3.20;;;18.90;98.00;;;;;;5074518;28;20510;-68
2022/07/31 06:13:29;;;;;;;5.50;3.23;;;18.90;98.00;;;;;;5056903;28;20463;-68
2022/07/31 06:15:57;;;;;;;4.57;3.37;;;18.90;98.00;;;;;;5074521;28;20456;-68
2022/07/31 06:18:24;;;;;;;4.43;3.17;;;19.00;98.00;;;;;;5074436;28;20500;-68
2022/07/31 06:20:52;;;;;;;4.70;3.00;;;19.10;98.00;;;;;;5074186;28;20445;-68
2022/07/31 06:23:19;;;;;;;7.37;3.37;;;19.20;98.00;;;;;;5074290;28;20449;-68
2022/07/31 06:25:46;;;;;;;5.37;3.20;;;19.30;98.00;;;;;;5074339;28;20456;-68
2022/07/31 06:28:14;;;;;;;4.80;2.90;;;19.50;98.00;;;;;;5073934;28;20494;-67
2022/07/31 06:30:41;;;;;;;5.00;2.97;;;19.60;98.00;;;;;;5073996;28;20457;-67
2022/07/31 06:33:10;;;;;;;4.50;3.07;;;19.70;98.00;;;;;;5074338;28;20831;-67
2022/07/31 06:35:37;;;;;;;5.60;2.90;;;19.80;98.00;;;;;;5073783;28;20473;-67
2022/07/31 06:38:04;;;;;;;5.03;2.60;;;19.90;98.00;;;;;;5073866;28;20487;-66
2022/07/31 06:40:32;;;;;;;7.77;3.97;;;20.00;98.00;;;;;;5055702;28;20553;-67
2022/07/31 06:42:59;;;;;;;5.73;3.60;;;20.20;98.00;;;;;;5056376;28;20460;-67
2022/07/31 06:45:26;;;;;;;5.90;3.67;;;20.30;98.00;;;;;;5073738;28;20468;-67
2022/07/31 06:47:54;;;;;;;6.27;3.27;;;20.20;98.00;;;;;;5073659;28;20460;-67
2022/07/31 06:50:22;;;;;;;5.47;3.13;;;20.40;98.00;;;;;;5073853;28;20523;-67
2022/07/31 06:52:49;;;;;;;5.17;3.23;;;20.40;98.00;;;;;;5073698;28;20460;-67
2022/07/31 06:55:16;;;;;;;3.90;2.73;;;20.40;98.00;;;;;;5073721;28;20955;-67
2022/07/31 06:57:44;;;;;;;4.47;2.80;;;20.40;98.00;;;;;;5073336;28;20762;-67
2022/07/31 07:00:12;;;;;;;5.13;3.20;;;20.60;98.00;;;;;;5073630;28;20449;-67
2022/07/31 07:02:42;;;;;;;5.23;3.20;;;20.60;98.00;;;;;;5073439;28;20538;-67
2022/07/31 07:05:09;;;;;;;5.77;3.23;;;20.60;98.00;;;;;;5073391;28;20457;-67
2022/07/31 07:07:38;;;;;;;6.30;3.27;;;20.50;98.00;;;;;;5055214;28;20999;-67
2022/07/31 07:10:06;;;;;;;5.77;3.30;;;20.70;98.00;;;;;;5073386;28;20449;-67
2022/07/31 07:12:33;;;;;;;4.87;3.37;;;20.80;98.00;;;;;;5073737;28;20449;-67
2022/07/31 07:15:00;;;;;;;4.53;3.10;;;21.00;98.00;;;;;;5055816;28;20457;-67
2022/07/31 07:17:27;;;;;;;4.63;3.23;;;21.20;98.00;;;;;;5073377;28;20483;-67
2022/07/31 07:19:55;;;;;;;5.97;3.60;;;21.30;98.00;;;;;;5073081;28;20951;-66
2022/07/31 07:22:22;;;;;;;5.33;3.40;;;21.40;98.00;;;;;;5054791;28;20461;-66
2022/07/31 07:24:51;;;;;;;5.90;3.23;;;21.50;98.00;;;;;;5073068;28;20887;-67
2022/07/31 07:27:18;;;;;;;4.30;3.20;;;21.50;98.00;;;;;;5073213;28;20503;-67
2022/07/31 07:29:45;;;;;;;5.10;2.90;;;21.60;98.00;;;;;;5072977;28;20457;-67
2022/07/31 07:32:13;;;;;;;3.40;2.53;;;21.60;98.00;;;;;;5055318;28;20452;-67
2022/07/31 07:34:40;;;;;;;4.60;3.17;;;21.80;98.00;;;;;;5072940;28;20449;-67
2022/07/31 07:37:07;;;;;;;4.67;3.27;;;22.00;98.00;;;;;;5072742;28;20485;-66
2022/07/31 07:39:35;;;;;;;5.10;3.27;;;22.30;98.00;;;;;;5072917;28;20963;-67
2022/07/31 07:42:04;;;;;;;3.57;2.87;;;22.40;98.00;;;;;;5071304;28;20460;-68
2022/07/31 07:44:31;;;;;;;4.07;2.70;;;22.50;98.00;;;;;;5067508;28;20445;-67
2022/07/31 07:46:58;;;;;;;4.47;2.73;;;22.50;98.00;;;;;;5061750;28;20848;-68
2022/07/31 07:49:25;;;;;;;4.17;2.93;;;22.60;98.00;;;;;;5050337;28;20465;-67
2022/07/31 07:51:53;;;;;;;4.23;3.10;;;22.60;98.00;;;;;;5069548;28;20457;-68
2022/07/31 07:54:20;;;;;;;6.67;3.33;;;22.60;98.00;;;;;;5052596;28;20449;-68
2022/07/31 07:56:47;;;;;;;4.30;2.57;;;22.70;98.00;;;;;;5069734;28;20453;-67
2022/07/31 07:59:15;;;;;;;6.10;3.10;;;22.80;98.00;;;;;;5070265;28;20468;-68
2022/07/31 08:01:42;;;;;;;4.37;3.03;;;22.80;98.00;;;;;;5051858;28;20456;-68
2022/07/31 08:04:10;;;;;;;5.37;3.13;;;22.70;98.00;;;;;;5070150;28;20877;-69
2022/07/31 08:06:37;;;;;;;4.60;2.93;;;22.60;98.00;;;;;;5051886;28;20463;-69
2022/07/31 08:09:04;;;;;;;4.67;3.00;;;22.60;98.00;;;;;;5052290;28;20886;-69
2022/07/31 08:11:31;;;;;;;4.30;2.90;;;22.70;98.00;;;;;;5069629;28;20468;-68
2022/07/31 08:13:58;;;;;;;5.00;3.40;;;22.80;98.00;;;;;;5069859;28;20468;-70
2022/07/31 08:16:27;;;;;;;4.03;2.90;;;23.00;98.00;;;;;;5069595;28;20472;-68
2022/07/31 08:18:54;;;;;;;6.37;3.47;;;23.10;98.00;;;;;;5069781;28;20858;-68
2022/07/31 08:21:21;;;;;;;5.10;2.93;;;23.10;98.00;;;;;;5069453;28;20457;-68
2022/07/31 08:23:48;;;;;;;4.67;2.90;;;23.20;98.00;;;;;;5071765;28;20457;-68
2022/07/31 08:26:17;;;;;;;5.57;3.30;;;23.20;98.00;;;;;;5071716;28;20519;-68
2022/07/31 08:28:45;;;;;;;5.17;3.30;;;23.20;98.00;;;;;;5071730;28;20831;-68
2022/07/31 08:31:12;;;;;;;4.20;3.07;;;23.20;98.00;;;;;;5071730;28;20629;-68
2022/07/31 08:33:40;;;;;;;4.47;2.80;;;23.40;98.00;;;;;;5071551;28;20993;-68
2022/07/31 08:36:08;;;;;;;5.23;3.40;;;23.40;98.00;;;;;;5071882;28;20453;-68
2022/07/31 08:38:37;;;;;;;5.43;2.87;;;23.50;98.00;;;;;;5071684;28;20486;-68
2022/07/31 08:41:04;;;;;;;3.93;2.90;;;23.70;98.00;;;;;;5071651;28;20475;-68
2022/07/31 08:43:31;;;;;;;5.23;2.83;;;23.80;98.00;;;;;;5053903;28;20456;-68
2022/07/31 08:46:01;;;;;;;4.60;3.10;;;23.90;98.00;;;;;;5071513;28;20449;-68
2022/07/31 08:48:32;;;;;;;5.27;3.10;;;24.00;97.10;;;;;;5071592;28;21012;-68
2022/07/31 08:51:02;;;;;;;4.37;3.50;;;24.20;96.30;;;;;;5071420;28;20453;-68
2022/07/31 08:53:31;;;;;;;4.90;3.30;;;24.20;97.40;;;;;;5071256;28;20576;-68
2022/07/31 08:55:59;;;;;;;5.70;3.10;;;24.40;95.80;;;;;;5071310;28;20452;-68
2022/07/31 08:58:26;;;;;;;4.30;2.70;;;24.50;93.20;;;;;;5071534;28;20481;-68
2022/07/31 09:00:54;;;;;;;5.00;3.13;;;24.50;92.00;;;;;;5071267;28;20465;-68
2022/07/31 09:03:21;;;;;;;4.17;2.73;;;24.50;89.00;;;;;;5071522;28;20457;-68
2022/07/31 09:05:48;;;;;;;3.53;2.80;;;24.60;89.50;;;;;;5071338;28;20464;-68
2022/07/31 09:08:17;;;;;;;4.87;3.10;;;24.70;87.90;;;;;;5053606;28;20448;-68
2022/07/31 09:10:45;;;;;;;5.90;3.60;;;25.00;87.10;;;;;;5070935;28;20457;-68
2022/07/31 09:13:13;;;;;;;4.70;3.03;;;25.20;86.50;;;;;;5071380;28;20544;-68
2022/07/31 09:15:41;;;;;;;4.53;2.80;;;25.30;85.10;;;;;;5071318;28;20456;-68
2022/07/31 09:18:17;;;;;;;4.80;3.00;;;25.50;85.40;;;;;;5071478;28;20488;-68
2022/07/31 09:20:55;;;;;;;3.93;2.97;;;25.70;84.30;;;;;;5071282;28;20514;-69
2022/07/31 09:23:25;;;;;;;3.60;2.60;;;25.80;84.20;;;;;;5071353;28;20465;-69
2022/07/31 09:25:54;;;;;;;4.07;2.97;;;25.90;83.00;;;;;;5071171;28;20472;-68
2022/07/31 09:28:31;;;;;;;3.80;2.90;;;26.00;82.30;;;;;;5071150;28;20453;-68
2022/07/31 09:30:58;;;;;;;4.60;2.97;;;26.10;81.50;;;;;;5071046;28;20517;-68
2022/07/31 09:33:29;;;;;;;5.40;2.80;;;26.20;82.60;;;;;;5071187;28;20822;-69
2022/07/31 09:35:58;;;;;;;3.20;2.63;;;26.30;82.30;;;;;;5071112;28;20472;-68
2022/07/31 09:38:32;;;;;;;4.10;2.80;;;26.40;83.80;;;;;;5070994;28;20515;-69
2022/07/31 09:41:09;;;;;;;4.23;2.60;;;26.40;81.90;;;;;;5070757;28;20453;-68
2022/07/31 09:43:37;;;;;;;4.07;2.70;;;26.30;80.00;;;;;;5053043;28;21024;-65
2022/07/31 09:46:06;;;;;;;4.20;3.07;;;26.30;82.50;;;;;;5074690;28;20997;-68
2022/07/31 09:48:35;;;;;;;3.83;2.30;;;26.20;82.50;;;;;;5074931;28;20834;-67
2022/07/31 09:51:07;;;;;;;4.00;2.50;;;26.30;83.40;;;;;;5075116;28;20468;-66
2022/07/31 09:53:44;;;;;;;5.00;2.83;;;26.60;82.90;;;;;;5075808;28;21258;-66
2022/07/31 09:58:39;;;;;;;3.90;2.50;;;27.00;81.50;;;;;;5051415;28;20507;-66
2022/07/31 10:01:09;;;;;;;3.07;2.33;;;27.20;78.90;;;;;;5053201;28;20536;-67
2022/07/31 10:03:37;;;;;;;3.50;2.43;;;27.30;76.10;;;;;;5053046;28;20472;-67
2022/07/31 10:06:06;;;;;;;2.97;2.40;;;27.50;78.50;;;;;;5035526;28;20457;-69
2022/07/31 10:08:35;;;;;;;4.47;2.60;;;27.80;76.70;;;;;;5054663;28;20471;-69
2022/07/31 10:11:05;;;;;;;3.57;2.47;;;28.10;76.60;;;;;;5054457;28;21020;-69
2022/07/31 10:13:36;;;;;;;4.47;2.67;;;28.20;74.50;;;;;;5054609;28;20466;-69
2022/07/31 10:16:03;;;;;;;3.10;2.33;;;28.20;75.70;;;;;;5054721;28;20515;-69
2022/07/31 10:18:34;;;;;;;3.27;2.30;;;28.40;73.40;;;;;;5054699;28;20485;-69
2022/07/31 10:21:04;;;;;;;3.00;2.30;;;28.50;74.30;;;;;;5054779;28;20470;-68
2022/07/31 10:23:34;;;;;;;2.77;2.20;;;28.50;72.50;;;;;;5054380;28;20880;-69
2022/07/31 10:26:02;;;;;;;2.57;2.20;;;28.30;74.20;;;;;;5054326;28;20568;-65
2022/07/31 10:28:36;;;;;;;2.43;2.13;;;28.40;74.50;;;;;;5054504;28;20454;-65
2022/07/31 10:31:04;;;;;;;3.33;2.23;;;28.40;74.10;;;;;;5036361;28;20955;-64
2022/07/31 10:33:32;;;;;;;2.80;2.30;;;28.50;75.20;;;;;;5054275;28;21093;-65
2022/07/31 10:36:05;;;;;;;2.83;2.13;;;28.60;74.40;;;;;;5036429;28;20460;-68
2022/07/31 10:38:41;;;;;;;3.13;1.93;;;28.90;71.90;;;;;;5054021;28;20516;-69
2022/07/31 10:41:15;;;;;;;2.40;2.20;;;29.00;72.60;;;;;;5054124;28;20457;-67
2022/07/31 10:43:48;;;;;;;2.43;1.87;;;29.30;72.70;;;;;;5053929;28;20837;-67
2022/07/31 10:46:27;;;;;;;3.37;2.57;;;29.40;70.50;;;;;;5053967;28;20453;-68
2022/07/31 10:48:54;;;;;;;1.80;1.70;;;29.40;70.30;;;;;;5036032;28;20460;-68
2022/07/31 10:51:22;;;;;;;2.77;1.83;;;29.40;69.90;;;;;;5053874;28;20450;-67
2022/07/31 10:53:58;;;;;;;2.70;2.00;;;29.40;70.80;;;;;;5053603;28;20857;-67
2022/07/31 10:56:25;;;;;;;2.80;2.17;;;29.50;71.20;;;;;;5053701;28;20806;-67
2022/07/31 10:58:56;;;;;;;3.23;2.30;;;29.50;71.10;;;;;;5053398;28;20477;-67
2022/07/31 11:01:24;;;;;;;2.60;2.20;;;29.70;72.70;;;;;;5036027;28;20457;-66
2022/07/31 11:03:59;;;;;;;4.50;2.20;;;29.90;71.70;;;;;;5053560;28;20511;-68
2022/07/31 11:06:26;;;;;;;2.30;1.97;;;29.90;71.90;;;;;;5053558;28;20457;-66
2022/07/31 11:08:54;;;;;;;2.97;2.30;;;30.10;70.40;;;;;;5035733;28;20592;-66
2022/07/31 11:11:32;;;;;;;2.97;2.40;;;30.30;70.00;;;;;;5053474;28;20203;-66
2022/07/31 11:14:01;;;;;;;2.80;2.30;;;30.40;70.40;;;;;;5036074;28;20454;-65
2022/07/31 11:16:29;;;;;;;2.60;2.13;;;30.40;70.50;;;;;;5053031;28;20489;-66
2022/07/31 11:19:01;;;;;;;2.83;2.17;;;30.50;71.20;;;;;;5035972;28;20477;-66
2022/07/31 11:21:32;;;;;;;2.80;2.40;;;30.60;69.70;;;;;;5053538;28;20458;-65
2022/07/31 11:24:00;;;;;;;2.70;2.23;;;30.80;70.50;;;;;;5035931;28;20462;-65
2022/07/31 11:26:27;;;;;;;2.40;2.10;;;30.80;70.30;;;;;;5053327;28;20458;-67
2022/07/31 11:28:54;;;;;;;2.90;2.10;;;30.60;69.90;;;;;;5053004;28;20461;-66
2022/07/31 11:31:28;;;;;;;3.33;2.40;;;30.30;70.70;;;;;;5053138;28;20464;-65
2022/07/31 11:33:56;;;;;;;2.70;2.30;;;30.40;73.00;;;;;;5053130;28;20453;-64
2022/07/31 11:36:24;;;;;;;4.00;2.37;;;30.80;71.60;;;;;;5052946;28;20819;-64
2022/07/31 11:38:52;;;;;;;3.00;2.37;;;31.00;69.80;;;;;;5052957;28;20481;-67
2022/07/31 11:41:20;;;;;;;3.37;2.53;;;30.90;70.50;;;;;;5052844;28;20460;-66
2022/07/31 11:43:50;;;;;;;3.13;2.47;;;30.70;69.50;;;;;;5052869;28;20461;-66
2022/07/31 11:46:26;;;;;;;3.03;2.10;;;30.80;70.60;;;;;;5052814;28;20469;-65
2022/07/31 11:48:53;;;;;;;2.87;2.40;;;31.10;69.30;;;;;;5052831;28;20529;-65
2022/07/31 11:51:21;;;;;;;3.70;2.50;;;31.10;68.90;;;;;;5052702;28;20453;-65
2022/07/31 11:53:49;;;;;;;3.60;2.43;;;30.80;69.50;;;;;;5052724;28;20458;-66
2022/07/31 11:56:17;;;;;;;2.63;2.03;;;30.50;69.80;;;;;;5052653;28;20458;-63
2022/07/31 11:58:48;;;;;;;3.67;2.80;;;30.50;71.00;;;;;;5052397;28;20485;-66
2022/07/31 12:01:15;;;;;;;3.80;2.30;;;30.80;69.30;;;;;;5052490;28;20458;-66
2022/07/31 12:03:44;;;;;;;2.63;2.40;;;31.00;69.70;;;;;;5052498;28;20485;-66
2022/07/31 12:06:17;;;;;;;3.23;2.50;;;31.40;68.20;;;;;;5052442;28;20458;-66
2022/07/31 12:08:46;;;;;;;2.83;2.30;;;31.60;68.50;;;;;;5052089;28;20848;-65
2022/07/31 12:11:16;;;;;;;4.63;2.60;;;31.70;68.90;;;;;;5052449;28;20956;-66
2022/07/31 12:13:46;;;;;;;3.37;2.50;;;31.70;68.30;;;;;;5052402;28;20533;-66
2022/07/31 12:16:14;;;;;;;3.40;2.60;;;31.50;67.90;;;;;;5052464;28;21048;-66
2022/07/31 12:18:58;;;;;;;2.90;2.33;;;31.50;69.90;;;;;;5052278;28;20488;-67
2022/07/31 12:21:32;;;;;;;3.20;2.70;;;31.80;68.90;;;;;;5050711;28;20466;-68
2022/07/31 12:24:00;;;;;;;3.23;2.60;;;31.90;67.60;;;;;;5052176;28;20453;-71
2022/07/31 12:26:30;;;;;;;3.00;2.70;;;31.60;68.00;;;;;;5052044;28;21032;-72
2022/07/31 12:28:58;;;;;;;3.03;2.43;;;31.30;68.50;;;;;;5052060;28;20464;-70
2022/07/31 12:31:26;;;;;;;3.03;2.50;;;31.00;69.00;;;;;;5052016;28;20457;-75
2022/07/31 12:33:53;;;;;;;2.50;2.00;;;31.20;69.70;;;;;;5051889;28;20458;-70
2022/07/31 12:36:22;;;;;;;4.43;2.70;;;31.50;69.70;;;;;;5034201;28;20832;-69
2022/07/31 12:39:00;;;;;;;4.50;2.70;;;31.50;68.60;;;;;;5051713;28;20511;-73
2022/07/31 12:41:28;;;;;;;3.47;2.40;;;31.30;68.60;;;;;;5052054;28;20829;-72
2022/07/31 12:43:55;;;;;;;3.37;2.43;;;31.00;68.40;;;;;;5051731;28;20457;-72
2022/07/31 12:46:34;;;;;;;3.60;2.40;;;30.80;69.90;;;;;;5051577;28;20454;-72
2022/07/31 12:49:01;;;;;;;2.93;2.37;;;30.80;69.80;;;;;;5051620;28;20458;-71
2022/07/31 12:51:31;;;;;;;3.50;2.30;;;30.90;70.70;;;;;;5051423;28;20853;-73
2022/07/31 12:53:58;;;;;;;3.40;2.53;;;31.10;70.40;;;;;;5051646;28;20824;-77
2022/07/31 12:56:26;;;;;;;2.93;2.40;;;31.30;70.00;;;;;;5051696;28;20544;-73
2022/07/31 12:58:53;;;;;;;4.00;2.63;;;31.20;69.30;;;;;;5033772;28;20849;-69